sensor_id;sensor_type;location;lat;lon;timestamp;pressure;altitude;pressure_sealevel;temperature;humidity
24422;BME280;12600;53.326;-6.298;2023-02-14T00:00:28;102208.31;;;9.20;63.48
24422;BME280;12600;53.326;-6.298;2023-02-14T00:03:18;102199.09;;;9.26;63.24
24422;BME280;12600;53.326;-6.298;2023-02-14T00:06:09;102187.91;;;9.28;63.52
24422;BME280;12600;53.326;-6.298;2023-02-14T00:08:59;102209.47;;;9.24;63.52
24422;BME280;12600;53.326;-6.298;2023-02-14T00:11:49;102216.50;;;9.20;63.57
24422;BME280;12600;53.326;-6.298;2023-02-14T00:14:38;102220.59;;;9.17;63.66
24422;BME280;12600;53.326;-6.298;2023-02-14T00:17:46;102201.19;;;9.14;63.47
24422;BME280;12600;53.326;-6.298;2023-02-14T00:20:35;102211.53;;;9.12;63.36
24422;BME280;12600;53.326;-6.298;2023-02-14T00:23:24;102210.97;;;9.10;63.84
24422;BME280;12600;53.326;-6.298;2023-02-14T00:26:14;102204.16;;;9.12;63.79
24422;BME280;12600;53.326;-6.298;2023-02-14T00:29:05;102202.81;;;9.10;63.75
24422;BME280;12600;53.326;-6.298;2023-02-14T00:31:55;102192.66;;;9.05;64.47
24422;BME280;12600;53.326;-6.298;2023-02-14T00:34:45;102191.88;;;9.10;64.44
24422;BME280;12600;53.326;-6.298;2023-02-14T00:37:35;102194.56;;;9.05;65.29
24422;BME280;12600;53.326;-6.298;2023-02-14T00:40:24;102187.53;;;9.14;65.56
24422;BME280;12600;53.326;-6.298;2023-02-14T00:43:17;102167.41;;;9.15;65.24
24422;BME280;12600;53.326;-6.298;2023-02-14T00:46:06;102168.50;;;9.19;65.06
24422;BME280;12600;53.326;-6.298;2023-02-14T00:48:56;102175.09;;;9.23;64.72
24422;BME280;12600;53.326;-6.298;2023-02-14T00:51:46;102174.78;;;9.19;64.70
24422;BME280;12600;53.326;-6.298;2023-02-14T00:54:36;102188.41;;;9.19;65.33
24422;BME280;12600;53.326;-6.298;2023-02-14T00:57:25;102180.53;;;9.23;64.76
24422;BME280;12600;53.326;-6.298;2023-02-14T01:00:15;102167.94;;;9.17;64.69
24422;BME280;12600;53.326;-6.298;2023-02-14T01:03:04;102176.69;;;9.19;64.78
24422;BME280;12600;53.326;-6.298;2023-02-14T01:05:54;102188.94;;;9.16;65.17
24422;BME280;12600;53.326;-6.298;2023-02-14T01:08:45;102174.50;;;9.16;66.16
24422;BME280;12600;53.326;-6.298;2023-02-14T01:11:34;102168.56;;;9.24;66.24
24422;BME280;12600;53.326;-6.298;2023-02-14T01:14:24;102172.09;;;9.30;66.86
24422;BME280;12600;53.326;-6.298;2023-02-14T01:17:13;102171.38;;;9.44;66.69
24422;BME280;12600;53.326;-6.298;2023-02-14T01:20:04;102166.00;;;9.55;66.47
24422;BME280;12600;53.326;-6.298;2023-02-14T01:22:53;102151.78;;;9.52;66.40
24422;BME280;12600;53.326;-6.298;2023-02-14T01:25:44;102143.31;;;9.54;66.33
24422;BME280;12600;53.326;-6.298;2023-02-14T01:28:34;102166.03;;;9.65;67.12
24422;BME280;12600;53.326;-6.298;2023-02-14T01:31:26;102140.66;;;9.69;66.85
24422;BME280;12600;53.326;-6.298;2023-02-14T01:34:16;102157.63;;;9.71;67.36
24422;BME280;12600;53.326;-6.298;2023-02-14T01:37:06;102139.34;;;9.72;66.92
24422;BME280;12600;53.326;-6.298;2023-02-14T01:39:56;102140.16;;;9.77;67.53
24422;BME280;12600;53.326;-6.298;2023-02-14T01:42:47;102142.06;;;9.72;68.06
24422;BME280;12600;53.326;-6.298;2023-02-14T01:45:36;102148.63;;;9.76;68.27
24422;BME280;12600;53.326;-6.298;2023-02-14T01:48:26;102149.72;;;9.75;67.78
24422;BME280;12600;53.326;-6.298;2023-02-14T01:51:16;102136.59;;;9.72;67.74
24422;BME280;12600;53.326;-6.298;2023-02-14T01:54:07;102114.72;;;9.62;67.44
24422;BME280;12600;53.326;-6.298;2023-02-14T01:57:01;102124.25;;;9.59;68.52
24422;BME280;12600;53.326;-6.298;2023-02-14T01:59:56;102112.50;;;9.53;68.58
24422;BME280;12600;53.326;-6.298;2023-02-14T02:03:08;102127.22;;;9.47;69.63
24422;BME280;12600;53.326;-6.298;2023-02-14T02:06:05;102136.00;;;9.55;69.28
24422;BME280;12600;53.326;-6.298;2023-02-14T02:09:06;102117.94;;;9.48;69.83
24422;BME280;12600;53.326;-6.298;2023-02-14T02:11:57;102123.97;;;9.56;68.89
24422;BME280;12600;53.326;-6.298;2023-02-14T02:14:46;102122.84;;;9.51;69.08
24422;BME280;12600;53.326;-6.298;2023-02-14T02:17:48;102113.59;;;9.47;69.67
24422;BME280;12600;53.326;-6.298;2023-02-14T02:21:28;102119.34;;;9.56;69.49
24422;BME280;12600;53.326;-6.298;2023-02-14T02:24:37;102131.31;;;9.50;69.58
24422;BME280;12600;53.326;-6.298;2023-02-14T02:28:03;102117.72;;;9.55;70.08
24422;BME280;12600;53.326;-6.298;2023-02-14T02:38:30;102104.63;;;9.62;70.98
24422;BME280;12600;53.326;-6.298;2023-02-14T02:41:35;102098.41;;;9.72;71.58
24422;BME280;12600;53.326;-6.298;2023-02-14T02:44:41;102108.75;;;9.70;71.46
24422;BME280;12600;53.326;-6.298;2023-02-14T02:47:35;102085.00;;;9.70;71.49
24422;BME280;12600;53.326;-6.298;2023-02-14T02:50:31;102085.78;;;9.61;72.60
24422;BME280;12600;53.326;-6.298;2023-02-14T02:53:41;102087.44;;;9.67;73.24
24422;BME280;12600;53.326;-6.298;2023-02-14T02:56:38;102093.44;;;9.69;74.18
24422;BME280;12600;53.326;-6.298;2023-02-14T02:59:41;102088.06;;;9.79;73.75
24422;BME280;12600;53.326;-6.298;2023-02-14T03:02:36;102084.19;;;9.75;73.79
24422;BME280;12600;53.326;-6.298;2023-02-14T03:05:51;102080.41;;;9.86;73.26
24422;BME280;12600;53.326;-6.298;2023-02-14T03:08:40;102082.59;;;9.89;73.00
24422;BME280;12600;53.326;-6.298;2023-02-14T03:11:30;102080.97;;;9.88;73.24
24422;BME280;12600;53.326;-6.298;2023-02-14T03:14:21;102090.78;;;9.94;73.22
24422;BME280;12600;53.326;-6.298;2023-02-14T03:17:20;102083.16;;;9.91;73.18
24422;BME280;12600;53.326;-6.298;2023-02-14T03:20:19;102081.78;;;9.89;73.00
24422;BME280;12600;53.326;-6.298;2023-02-14T03:23:16;102089.72;;;9.95;73.34
24422;BME280;12600;53.326;-6.298;2023-02-14T03:26:16;102071.41;;;9.91;73.43
24422;BME280;12600;53.326;-6.298;2023-02-14T03:29:14;102069.47;;;9.86;73.66
24422;BME280;12600;53.326;-6.298;2023-02-14T03:32:12;102064.00;;;9.76;74.88
24422;BME280;12600;53.326;-6.298;2023-02-14T03:35:13;102055.84;;;9.86;74.86
24422;BME280;12600;53.326;-6.298;2023-02-14T03:38:09;102024.16;;;9.85;75.09
24422;BME280;12600;53.326;-6.298;2023-02-14T03:41:04;102028.81;;;9.90;74.94
24422;BME280;12600;53.326;-6.298;2023-02-14T03:43:58;102050.69;;;10.05;75.25
24422;BME280;12600;53.326;-6.298;2023-02-14T03:46:52;102044.16;;;10.11;75.19
24422;BME280;12600;53.326;-6.298;2023-02-14T03:49:53;102048.25;;;10.14;75.29
24422;BME280;12600;53.326;-6.298;2023-02-14T03:52:45;102047.97;;;10.15;75.19
24422;BME280;12600;53.326;-6.298;2023-02-14T03:55:43;102044.16;;;10.11;75.44
24422;BME280;12600;53.326;-6.298;2023-02-14T03:58:38;102044.44;;;10.20;75.57
24422;BME280;12600;53.326;-6.298;2023-02-14T04:01:34;102034.03;;;10.17;75.74
24422;BME280;12600;53.326;-6.298;2023-02-14T04:04:27;102039.50;;;10.17;75.69
24422;BME280;12600;53.326;-6.298;2023-02-14T04:07:21;102042.00;;;10.23;75.91
24422;BME280;12600;53.326;-6.298;2023-02-14T04:10:11;102046.63;;;10.33;75.81
24422;BME280;12600;53.326;-6.298;2023-02-14T04:13:00;102031.63;;;10.30;76.12
24422;BME280;12600;53.326;-6.298;2023-02-14T04:15:51;102018.75;;;10.26;76.65
24422;BME280;12600;53.326;-6.298;2023-02-14T04:18:40;102030.81;;;10.35;76.80
24422;BME280;12600;53.326;-6.298;2023-02-14T04:21:46;102019.03;;;10.40;76.52
24422;BME280;12600;53.326;-6.298;2023-02-14T04:24:36;102035.72;;;10.43;76.93
24422;BME280;12600;53.326;-6.298;2023-02-14T04:27:25;102013.31;;;10.41;76.40
24422;BME280;12600;53.326;-6.298;2023-02-14T04:30:15;102011.66;;;10.55;75.96
24422;BME280;12600;53.326;-6.298;2023-02-14T04:33:09;102016.31;;;10.55;76.20
24422;BME280;12600;53.326;-6.298;2023-02-14T04:35:58;102028.03;;;10.55;76.71
24422;BME280;12600;53.326;-6.298;2023-02-14T04:38:48;102009.47;;;10.52;76.29
24422;BME280;12600;53.326;-6.298;2023-02-14T04:41:37;102013.81;;;10.63;76.56
24422;BME280;12600;53.326;-6.298;2023-02-14T04:44:26;102020.66;;;10.71;76.69
24422;BME280;12600;53.326;-6.298;2023-02-14T04:47:15;102014.91;;;10.73;76.12
24422;BME280;12600;53.326;-6.298;2023-02-14T04:50:07;102015.44;;;10.75;75.88
24422;BME280;12600;53.326;-6.298;2023-02-14T04:52:57;102013.50;;;10.80;75.65
24422;BME280;12600;53.326;-6.298;2023-02-14T04:55:48;102004.78;;;10.78;75.59
24422;BME280;12600;53.326;-6.298;2023-02-14T04:58:38;102002.88;;;10.74;75.22
24422;BME280;12600;53.326;-6.298;2023-02-14T05:01:27;102006.44;;;10.69;74.94
24422;BME280;12600;53.326;-6.298;2023-02-14T05:04:16;102014.63;;;10.74;74.95
24422;BME280;12600;53.326;-6.298;2023-02-14T05:07:07;102004.53;;;10.70;74.94
24422;BME280;12600;53.326;-6.298;2023-02-14T05:09:56;102011.63;;;10.65;75.18
24422;BME280;12600;53.326;-6.298;2023-02-14T05:12:46;102005.91;;;10.57;75.77
24422;BME280;12600;53.326;-6.298;2023-02-14T05:15:35;102020.94;;;10.64;75.87
24422;BME280;12600;53.326;-6.298;2023-02-14T05:18:25;102003.16;;;10.62;75.79
24422;BME280;12600;53.326;-6.298;2023-02-14T05:21:14;102007.25;;;10.64;75.60
24422;BME280;12600;53.326;-6.298;2023-02-14T05:24:05;102001.50;;;10.66;75.81
24422;BME280;12600;53.326;-6.298;2023-02-14T05:26:55;102005.34;;;10.65;76.43
24422;BME280;12600;53.326;-6.298;2023-02-14T05:29:44;102013.81;;;10.69;76.33
24422;BME280;12600;53.326;-6.298;2023-02-14T05:32:33;102004.25;;;10.66;76.75
24422;BME280;12600;53.326;-6.298;2023-02-14T05:35:23;101997.72;;;10.67;77.50
24422;BME280;12600;53.326;-6.298;2023-02-14T05:38:12;101995.75;;;10.73;78.19
24422;BME280;12600;53.326;-6.298;2023-02-14T05:41:03;101986.16;;;10.80;77.54
24422;BME280;12600;53.326;-6.298;2023-02-14T05:43:53;101980.72;;;10.80;77.65
24422;BME280;12600;53.326;-6.298;2023-02-14T05:46:42;101976.06;;;10.81;77.55
24422;BME280;12600;53.326;-6.298;2023-02-14T05:49:31;101994.63;;;10.89;77.97
24422;BME280;12600;53.326;-6.298;2023-02-14T05:52:22;101974.41;;;10.85;77.70
24422;BME280;12600;53.326;-6.298;2023-02-14T05:55:11;101982.63;;;10.85;77.69
24422;BME280;12600;53.326;-6.298;2023-02-14T05:58:02;101980.94;;;10.89;77.83
24422;BME280;12600;53.326;-6.298;2023-02-14T06:00:52;101992.16;;;10.87;77.62
24422;BME280;12600;53.326;-6.298;2023-02-14T06:03:41;101973.34;;;10.76;77.75
24422;BME280;12600;53.326;-6.298;2023-02-14T06:06:30;101977.16;;;10.80;78.06
24422;BME280;12600;53.326;-6.298;2023-02-14T06:09:22;101975.00;;;10.77;78.09
24422;BME280;12600;53.326;-6.298;2023-02-14T06:12:11;101968.97;;;10.75;78.47
24422;BME280;12600;53.326;-6.298;2023-02-14T06:15:02;101972.25;;;10.72;78.82
24422;BME280;12600;53.326;-6.298;2023-02-14T06:17:53;101968.44;;;10.73;78.73
24422;BME280;12600;53.326;-6.298;2023-02-14T06:20:43;101946.59;;;10.68;78.69
24422;BME280;12600;53.326;-6.298;2023-02-14T06:23:32;101964.59;;;10.74;79.00
24422;BME280;12600;53.326;-6.298;2023-02-14T06:26:21;101968.13;;;10.74;79.31
24422;BME280;12600;53.326;-6.298;2023-02-14T06:29:16;101960.50;;;10.76;81.41
24422;BME280;12600;53.326;-6.298;2023-02-14T06:32:07;101961.81;;;10.89;81.91
24422;BME280;12600;53.326;-6.298;2023-02-14T06:34:56;101965.34;;;11.00;81.87
24422;BME280;12600;53.326;-6.298;2023-02-14T06:37:45;101968.56;;;11.12;81.17
24422;BME280;12600;53.326;-6.298;2023-02-14T06:40:35;101957.91;;;11.10;80.95
24422;BME280;12600;53.326;-6.298;2023-02-14T06:43:24;101959.53;;;11.16;80.26
24422;BME280;12600;53.326;-6.298;2023-02-14T06:46:14;101966.91;;;11.16;80.05
24422;BME280;12600;53.326;-6.298;2023-02-14T06:49:05;101943.13;;;11.06;81.15
24422;BME280;12600;53.326;-6.298;2023-02-14T06:51:54;101971.00;;;11.18;80.74
24422;BME280;12600;53.326;-6.298;2023-02-14T06:54:43;101968.53;;;11.17;81.67
24422;BME280;12600;53.326;-6.298;2023-02-14T06:57:33;101956.22;;;11.19;82.13
24422;BME280;12600;53.326;-6.298;2023-02-14T07:00:22;101962.50;;;11.25;82.90
24422;BME280;12600;53.326;-6.298;2023-02-14T07:03:11;101949.56;;;11.31;82.13
24422;BME280;12600;53.326;-6.298;2023-02-14T07:06:03;101946.25;;;11.39;81.71
24422;BME280;12600;53.326;-6.298;2023-02-14T07:08:52;101948.97;;;11.39;81.37
24422;BME280;12600;53.326;-6.298;2023-02-14T07:11:42;101945.72;;;11.37;81.33
24422;BME280;12600;53.326;-6.298;2023-02-14T07:14:31;101962.94;;;11.42;81.67
24422;BME280;12600;53.326;-6.298;2023-02-14T07:17:20;101963.47;;;11.44;81.63
24422;BME280;12600;53.326;-6.298;2023-02-14T07:20:12;101960.72;;;11.44;82.11
24422;BME280;12600;53.326;-6.298;2023-02-14T07:23:03;101946.00;;;11.40;82.90
24422;BME280;12600;53.326;-6.298;2023-02-14T07:25:53;101958.75;;;11.55;82.95
24422;BME280;12600;53.326;-6.298;2023-02-14T07:28:43;101977.81;;;11.70;82.75
24422;BME280;12600;53.326;-6.298;2023-02-14T07:31:32;101979.13;;;11.78;82.62
24422;BME280;12600;53.326;-6.298;2023-02-14T07:34:22;101962.97;;;11.82;83.31
24422;BME280;12600;53.326;-6.298;2023-02-14T07:37:11;101976.06;;;11.90;83.12
24422;BME280;12600;53.326;-6.298;2023-02-14T07:40:05;101998.75;;;11.95;82.78
24422;BME280;12600;53.326;-6.298;2023-02-14T07:43:01;101991.63;;;11.94;83.30
24422;BME280;12600;53.326;-6.298;2023-02-14T07:45:51;102007.75;;;12.01;83.08
24422;BME280;12600;53.326;-6.298;2023-02-14T07:48:40;101998.41;;;12.02;82.85
24422;BME280;12600;53.326;-6.298;2023-02-14T07:51:29;101982.53;;;12.04;82.73
24422;BME280;12600;53.326;-6.298;2023-02-14T07:54:18;101994.53;;;12.08;82.64
24422;BME280;12600;53.326;-6.298;2023-02-14T07:57:09;101985.50;;;12.08;82.56
24422;BME280;12600;53.326;-6.298;2023-02-14T07:59:58;101983.91;;;12.01;82.73
24422;BME280;12600;53.326;-6.298;2023-02-14T08:02:48;101997.81;;;12.10;82.77
24422;BME280;12600;53.326;-6.298;2023-02-14T08:05:37;102000.53;;;12.10;82.53
24422;BME280;12600;53.326;-6.298;2023-02-14T08:08:29;101998.63;;;12.11;82.33
24422;BME280;12600;53.326;-6.298;2023-02-14T08:11:19;102010.44;;;12.11;82.45
24422;BME280;12600;53.326;-6.298;2023-02-14T08:14:23;102012.31;;;12.11;82.61
24422;BME280;12600;53.326;-6.298;2023-02-14T08:17:13;102027.91;;;12.15;82.70
24422;BME280;12600;53.326;-6.298;2023-02-14T08:20:03;102024.59;;;12.18;82.30
24422;BME280;12600;53.326;-6.298;2023-02-14T08:22:53;102014.41;;;12.24;82.36
24422;BME280;12600;53.326;-6.298;2023-02-14T08:25:42;102012.50;;;12.24;82.53
24422;BME280;12600;53.326;-6.298;2023-02-14T08:28:32;102005.09;;;12.25;82.79
24422;BME280;12600;53.326;-6.298;2023-02-14T08:31:26;101998.78;;;12.24;83.07
24422;BME280;12600;53.326;-6.298;2023-02-14T08:34:23;101999.75;;;12.39;83.28
24422;BME280;12600;53.326;-6.298;2023-02-14T08:37:12;101993.94;;;12.45;82.78
24422;BME280;12600;53.326;-6.298;2023-02-14T08:40:02;101993.63;;;12.52;83.11
24422;BME280;12600;53.326;-6.298;2023-02-14T08:42:51;101987.53;;;12.55;82.94
24422;BME280;12600;53.326;-6.298;2023-02-14T08:45:43;101991.75;;;12.71;82.58
24422;BME280;12600;53.326;-6.298;2023-02-14T08:48:34;102003.72;;;12.80;82.90
24422;BME280;12600;53.326;-6.298;2023-02-14T08:51:28;102005.31;;;12.86;82.80
24422;BME280;12600;53.326;-6.298;2023-02-14T08:54:18;101998.41;;;12.89;82.94
24422;BME280;12600;53.326;-6.298;2023-02-14T08:57:07;101991.53;;;12.92;82.79
24422;BME280;12600;53.326;-6.298;2023-02-14T08:59:56;102002.91;;;13.04;82.51
24422;BME280;12600;53.326;-6.298;2023-02-14T09:02:53;102007.00;;;13.06;82.24
24422;BME280;12600;53.326;-6.298;2023-02-14T09:05:45;101986.63;;;13.12;82.00
24422;BME280;12600;53.326;-6.298;2023-02-14T09:08:35;101979.44;;;13.16;81.73
24422;BME280;12600;53.326;-6.298;2023-02-14T09:11:25;101981.38;;;13.16;81.71
24422;BME280;12600;53.326;-6.298;2023-02-14T09:14:15;101998.84;;;13.25;81.71
24422;BME280;12600;53.326;-6.298;2023-02-14T09:17:06;101995.34;;;13.20;81.38
24422;BME280;12600;53.326;-6.298;2023-02-14T09:19:55;102004.34;;;13.25;81.29
24422;BME280;12600;53.326;-6.298;2023-02-14T09:22:46;102001.00;;;13.28;81.17
24422;BME280;12600;53.326;-6.298;2023-02-14T09:25:35;102006.94;;;13.35;81.07
24422;BME280;12600;53.326;-6.298;2023-02-14T09:28:25;102014.53;;;13.43;81.09
24422;BME280;12600;53.326;-6.298;2023-02-14T09:31:17;102006.59;;;13.42;80.71
24422;BME280;12600;53.326;-6.298;2023-02-14T09:34:06;102008.66;;;13.50;80.80
24422;BME280;12600;53.326;-6.298;2023-02-14T09:37:14;102009.03;;;13.62;80.69
24422;BME280;12600;53.326;-6.298;2023-02-14T09:40:06;102010.97;;;13.62;80.37
24422;BME280;12600;53.326;-6.298;2023-02-14T09:43:03;102016.91;;;13.69;79.77
24422;BME280;12600;53.326;-6.298;2023-02-14T09:45:59;102022.34;;;13.74;80.02
24422;BME280;12600;53.326;-6.298;2023-02-14T09:48:50;102013.50;;;13.77;80.01
24422;BME280;12600;53.326;-6.298;2023-02-14T09:51:46;102011.94;;;13.90;79.87
24422;BME280;12600;53.326;-6.298;2023-02-14T09:54:39;102003.47;;;14.05;79.40
24422;BME280;12600;53.326;-6.298;2023-02-14T09:57:35;102015.41;;;14.14;78.88
24422;BME280;12600;53.326;-6.298;2023-02-14T10:00:33;102016.66;;;14.22;79.08
24422;BME280;12600;53.326;-6.298;2023-02-14T10:04:04;102011.03;;;14.27;79.20
24422;BME280;12600;53.326;-6.298;2023-02-14T10:06:59;102019.84;;;14.29;78.68
24422;BME280;12600;53.326;-6.298;2023-02-14T10:09:59;102019.44;;;14.36;79.17
24422;BME280;12600;53.326;-6.298;2023-02-14T10:12:55;102017.22;;;14.38;78.82
24422;BME280;12600;53.326;-6.298;2023-02-14T10:15:55;102027.56;;;14.60;78.82
24422;BME280;12600;53.326;-6.298;2023-02-14T10:18:50;102013.31;;;14.71;78.38
24422;BME280;12600;53.326;-6.298;2023-02-14T10:21:43;102037.59;;;14.97;78.47
24422;BME280;12600;53.326;-6.298;2023-02-14T10:24:39;102011.09;;;14.87;77.37
24422;BME280;12600;53.326;-6.298;2023-02-14T10:27:34;102021.59;;;15.13;77.10
24422;BME280;12600;53.326;-6.298;2023-02-14T10:30:25;102020.97;;;15.16;75.42
24422;BME280;12600;53.326;-6.298;2023-02-14T10:33:17;102020.56;;;15.36;75.35
24422;BME280;12600;53.326;-6.298;2023-02-14T10:36:17;102031.34;;;15.46;74.22
24422;BME280;12600;53.326;-6.298;2023-02-14T10:39:30;102029.94;;;15.62;73.91
24422;BME280;12600;53.326;-6.298;2023-02-14T10:42:34;102035.84;;;15.70;73.45
24422;BME280;12600;53.326;-6.298;2023-02-14T10:45:35;102029.31;;;15.65;72.68
24422;BME280;12600;53.326;-6.298;2023-02-14T10:48:37;102028.66;;;15.82;72.58
24422;BME280;12600;53.326;-6.298;2023-02-14T10:51:33;102041.56;;;15.95;70.99
24422;BME280;12600;53.326;-6.298;2023-02-14T10:54:27;102021.47;;;16.17;72.35
24422;BME280;12600;53.326;-6.298;2023-02-14T10:57:24;102015.53;;;16.24;70.52
24422;BME280;12600;53.326;-6.298;2023-02-14T11:00:22;102022.22;;;16.54;70.51
24422;BME280;12600;53.326;-6.298;2023-02-14T11:03:13;102029.38;;;16.86;71.26
24422;BME280;12600;53.326;-6.298;2023-02-14T11:06:03;102023.47;;;17.10;70.68
24422;BME280;12600;53.326;-6.298;2023-02-14T11:08:52;102022.69;;;17.27;68.65
24422;BME280;12600;53.326;-6.298;2023-02-14T11:11:49;102011.69;;;17.44;69.29
24422;BME280;12600;53.326;-6.298;2023-02-14T11:14:39;102013.88;;;17.73;68.20
24422;BME280;12600;53.326;-6.298;2023-02-14T11:17:31;102011.59;;;17.93;67.06
24422;BME280;12600;53.326;-6.298;2023-02-14T11:20:27;102017.59;;;18.03;65.56
24422;BME280;12600;53.326;-6.298;2023-02-14T11:23:20;102026.38;;;18.31;63.79
24422;BME280;12600;53.326;-6.298;2023-02-14T11:26:16;102029.53;;;18.59;61.91
24422;BME280;12600;53.326;-6.298;2023-02-14T11:29:12;102034.84;;;18.90;62.19
24422;BME280;12600;53.326;-6.298;2023-02-14T11:32:08;102028.78;;;18.97;60.41
24422;BME280;12600;53.326;-6.298;2023-02-14T11:35:01;102035.47;;;18.96;59.51
24422;BME280;12600;53.326;-6.298;2023-02-14T11:37:55;102021.53;;;18.75;58.45
24422;BME280;12600;53.326;-6.298;2023-02-14T11:40:45;102023.03;;;18.64;58.50
24422;BME280;12600;53.326;-6.298;2023-02-14T11:43:43;102013.56;;;18.65;59.06
24422;BME280;12600;53.326;-6.298;2023-02-14T11:46:36;102009.50;;;18.80;59.03
24422;BME280;12600;53.326;-6.298;2023-02-14T11:49:39;101973.00;;;19.07;58.68
24422;BME280;12600;53.326;-6.298;2023-02-14T11:52:29;101985.88;;;19.62;58.72
24422;BME280;12600;53.326;-6.298;2023-02-14T11:55:26;101992.88;;;20.01;56.35
24422;BME280;12600;53.326;-6.298;2023-02-14T11:58:32;101966.81;;;20.15;54.26
24422;BME280;12600;53.326;-6.298;2023-02-14T12:01:25;101978.56;;;19.99;53.48
24422;BME280;12600;53.326;-6.298;2023-02-14T12:04:19;101958.88;;;19.92;51.93
24422;BME280;12600;53.326;-6.298;2023-02-14T12:07:17;101956.38;;;20.11;51.47
24422;BME280;12600;53.326;-6.298;2023-02-14T12:10:25;101963.13;;;20.23;49.48
24422;BME280;12600;53.326;-6.298;2023-02-14T12:13:23;101955.84;;;20.63;49.60
24422;BME280;12600;53.326;-6.298;2023-02-14T12:16:22;101945.19;;;20.78;48.37
24422;BME280;12600;53.326;-6.298;2023-02-14T12:19:18;101939.41;;;20.83;47.70
24422;BME280;12600;53.326;-6.298;2023-02-14T12:22:13;101936.41;;;20.88;47.68
24422;BME280;12600;53.326;-6.298;2023-02-14T12:25:13;101928.53;;;20.20;44.92
24422;BME280;12600;53.326;-6.298;2023-02-14T12:28:11;101928.38;;;20.04;44.70
24422;BME280;12600;53.326;-6.298;2023-02-14T12:31:08;101921.56;;;20.02;46.03
24422;BME280;12600;53.326;-6.298;2023-02-14T12:33:57;101913.97;;;19.78;46.33
24422;BME280;12600;53.326;-6.298;2023-02-14T12:37:12;101912.63;;;19.42;45.07
24422;BME280;12600;53.326;-6.298;2023-02-14T12:40:15;101914.03;;;19.07;45.92
24422;BME280;12600;53.326;-6.298;2023-02-14T12:43:40;101920.19;;;18.83;46.85
24422;BME280;12600;53.326;-6.298;2023-02-14T12:47:07;101909.31;;;18.39;47.52
24422;BME280;12600;53.326;-6.298;2023-02-14T12:50:30;101902.50;;;18.28;48.09
24422;BME280;12600;53.326;-6.298;2023-02-14T12:53:34;101905.81;;;18.22;47.65
24422;BME280;12600;53.326;-6.298;2023-02-14T12:56:39;101907.00;;;18.41;46.76
24422;BME280;12600;53.326;-6.298;2023-02-14T12:59:38;101894.13;;;18.84;46.17
24422;BME280;12600;53.326;-6.298;2023-02-14T13:06:02;101889.72;;;19.33;44.50
24422;BME280;12600;53.326;-6.298;2023-02-14T13:09:13;101882.88;;;19.31;43.92
24422;BME280;12600;53.326;-6.298;2023-02-14T13:12:19;101886.41;;;19.19;44.30
24422;BME280;12600;53.326;-6.298;2023-02-14T13:15:23;101876.00;;;18.95;44.22
24422;BME280;12600;53.326;-6.298;2023-02-14T13:18:24;101869.16;;;18.92;44.51
24422;BME280;12600;53.326;-6.298;2023-02-14T13:21:20;101875.47;;;18.72;44.41
24422;BME280;12600;53.326;-6.298;2023-02-14T13:24:17;101864.75;;;18.91;44.62
24422;BME280;12600;53.326;-6.298;2023-02-14T13:27:15;101882.28;;;19.04;44.12
24422;BME280;12600;53.326;-6.298;2023-02-14T13:30:18;101875.66;;;19.17;43.54
24422;BME280;12600;53.326;-6.298;2023-02-14T13:33:26;101861.06;;;19.29;43.10
24422;BME280;12600;53.326;-6.298;2023-02-14T13:36:20;101855.34;;;19.46;43.71
24422;BME280;12600;53.326;-6.298;2023-02-14T13:39:18;101862.78;;;19.54;43.20
24422;BME280;12600;53.326;-6.298;2023-02-14T13:42:12;101866.38;;;19.55;43.04
24422;BME280;12600;53.326;-6.298;2023-02-14T13:45:03;101856.63;;;19.49;42.92
24422;BME280;12600;53.326;-6.298;2023-02-14T13:48:02;101855.50;;;19.50;43.35
24422;BME280;12600;53.326;-6.298;2023-02-14T13:50:56;101859.38;;;19.58;44.01
24422;BME280;12600;53.326;-6.298;2023-02-14T13:53:47;101850.16;;;19.66;43.47
24422;BME280;12600;53.326;-6.298;2023-02-14T13:56:38;101848.78;;;19.72;43.61
24422;BME280;12600;53.326;-6.298;2023-02-14T13:59:29;101849.50;;;19.81;43.94
24422;BME280;12600;53.326;-6.298;2023-02-14T14:02:42;101851.34;;;19.77;43.72
24422;BME280;12600;53.326;-6.298;2023-02-14T14:06:00;101853.94;;;19.61;43.33
24422;BME280;12600;53.326;-6.298;2023-02-14T14:08:52;101856.78;;;19.52;44.22
24422;BME280;12600;53.326;-6.298;2023-02-14T14:11:51;101872.50;;;19.27;44.18
24422;BME280;12600;53.326;-6.298;2023-02-14T14:14:41;101860.66;;;18.97;44.37
24422;BME280;12600;53.326;-6.298;2023-02-14T14:17:32;101845.78;;;18.81;45.14
24422;BME280;12600;53.326;-6.298;2023-02-14T14:20:43;101858.44;;;18.53;45.07
24422;BME280;12600;53.326;-6.298;2023-02-14T14:23:36;101856.97;;;18.55;45.23
24422;BME280;12600;53.326;-6.298;2023-02-14T14:26:36;101860.81;;;18.33;44.78
24422;BME280;12600;53.326;-6.298;2023-02-14T14:29:33;101849.66;;;18.21;44.95
24422;BME280;12600;53.326;-6.298;2023-02-14T14:32:29;101850.50;;;18.13;45.20
24422;BME280;12600;53.326;-6.298;2023-02-14T14:35:22;101847.25;;;18.11;45.44
24422;BME280;12600;53.326;-6.298;2023-02-14T14:38:12;101832.25;;;18.12;45.78
24422;BME280;12600;53.326;-6.298;2023-02-14T14:41:03;101834.84;;;18.17;45.00
24422;BME280;12600;53.326;-6.298;2023-02-14T14:43:52;101830.31;;;18.12;44.70
24422;BME280;12600;53.326;-6.298;2023-02-14T14:46:42;101831.50;;;18.03;44.91
24422;BME280;12600;53.326;-6.298;2023-02-14T14:49:31;101834.56;;;18.10;45.13
24422;BME280;12600;53.326;-6.298;2023-02-14T14:52:33;101832.97;;;18.00;45.55
24422;BME280;12600;53.326;-6.298;2023-02-14T14:55:26;101822.31;;;17.81;46.11
24422;BME280;12600;53.326;-6.298;2023-02-14T14:58:34;101822.81;;;17.75;46.42
24422;BME280;12600;53.326;-6.298;2023-02-14T15:01:32;101842.50;;;17.73;46.60
24422;BME280;12600;53.326;-6.298;2023-02-14T15:04:29;101828.97;;;17.63;45.99
24422;BME280;12600;53.326;-6.298;2023-02-14T15:07:25;101838.06;;;17.63;46.12
24422;BME280;12600;53.326;-6.298;2023-02-14T15:10:24;101833.22;;;17.60;46.03
24422;BME280;12600;53.326;-6.298;2023-02-14T15:13:14;101856.28;;;17.56;45.59